createdAt,value
2023-01-07T00:01:40.137Z,3.10
2023-01-07T00:04:10.301Z,2.65
2023-01-07T00:06:40.560Z,2.53
2023-01-07T00:09:10.246Z,2.22
2023-01-07T00:11:40.322Z,2.30
2023-01-07T00:14:11.695Z,2.63
2023-01-07T00:16:39.468Z,2.63
2023-01-07T00:19:08.140Z,2.63
2023-01-07T00:21:35.437Z,2.70
2023-01-07T00:24:05.081Z,2.20
2023-01-07T00:26:34.505Z,2.33
2023-01-07T00:29:01.889Z,1.88
2023-01-07T00:31:35.259Z,2.20
2023-01-07T00:34:04.901Z,3.17
2023-01-07T00:36:35.425Z,2.45
2023-01-07T00:39:23.115Z,1.95
2023-01-07T00:42:08.671Z,2.53
2023-01-07T00:44:38.140Z,2.03
2023-01-07T00:47:05.556Z,2.45
2023-01-07T00:49:34.217Z,1.70
2023-01-07T00:52:01.140Z,2.42
2023-01-07T00:54:28.059Z,2.15
2023-01-07T00:56:58.206Z,2.72
2023-01-07T00:59:29.095Z,2.15
2023-01-07T01:01:57.050Z,1.63
2023-01-07T01:04:28.725Z,2.65
2023-01-07T01:06:56.227Z,2.45
2023-01-07T01:09:26.525Z,2.08
2023-01-07T01:11:59.479Z,1.92
2023-01-07T01:14:26.584Z,2.30
2023-01-07T01:16:53.343Z,1.70
2023-01-07T01:19:20.831Z,1.75
2023-01-07T01:21:48.008Z,2.08
2023-01-07T01:24:14.755Z,2.15
2023-01-07T01:26:41.485Z,2.10
2023-01-07T01:29:08.543Z,1.83
2023-01-07T01:31:35.786Z,2.10
2023-01-07T01:34:03.529Z,2.08
2023-01-07T01:36:30.372Z,2.40
2023-01-07T01:38:59.219Z,1.90
2023-01-07T01:41:32.844Z,2.13
2023-01-07T01:44:01.444Z,1.67
2023-01-07T01:46:39.648Z,1.65
2023-01-07T01:49:23.515Z,1.83
2023-01-07T01:52:00.266Z,2.10
2023-01-07T01:54:30.194Z,2.10
2023-01-07T01:57:02.443Z,2.22
2023-01-07T01:59:36.553Z,2.05
2023-01-07T02:02:09.132Z,2.70
2023-01-07T02:04:36.915Z,1.90
2023-01-07T02:07:06.614Z,2.17
2023-01-07T02:09:35.932Z,2.58
2023-01-07T02:12:23.294Z,2.17
2023-01-07T02:15:18.733Z,3.30
2023-01-07T02:18:16.977Z,2.40
2023-01-07T02:20:54.558Z,2.40
2023-01-07T02:23:41.094Z,2.70
2023-01-07T02:26:39.172Z,2.22
2023-01-07T02:29:22.651Z,2.42
2023-01-07T02:32:11.967Z,2.45
2023-01-07T02:35:07.052Z,2.38
2023-01-07T02:38:06.811Z,2.80
2023-01-07T02:40:58.222Z,2.67
2023-01-07T02:43:57.043Z,3.03
2023-01-07T02:46:37.131Z,2.83
2023-01-07T02:49:14.078Z,3.25
2023-01-07T02:51:41.798Z,3.28
2023-01-07T02:54:14.758Z,2.22
2023-01-07T02:57:10.056Z,2.17
2023-01-07T02:59:53.432Z,2.50
2023-01-07T03:02:33.428Z,2.53
2023-01-07T03:05:11.095Z,1.92
2023-01-07T03:08:06.960Z,2.65
2023-01-07T03:10:36.799Z,2.35
2023-01-07T03:13:15.422Z,2.75
2023-01-07T03:15:50.954Z,2.08
2023-01-07T03:18:27.781Z,2.65
2023-01-07T03:21:21.127Z,2.28
2023-01-07T03:23:55.749Z,1.70
2023-01-07T03:26:31.319Z,2.35
2023-01-07T03:29:01.742Z,2.38
2023-01-07T03:31:30.833Z,1.88
2023-01-07T03:34:15.849Z,2.08
2023-01-07T03:36:52.969Z,2.40
2023-01-07T03:39:23.652Z,2.38
2023-01-07T03:42:11.080Z,2.42
2023-01-07T03:44:38.080Z,2.35
2023-01-07T03:47:09.151Z,2.30
2023-01-07T03:49:37.082Z,1.80
2023-01-07T03:52:04.772Z,2.08
2023-01-07T03:54:34.004Z,2.08
2023-01-07T03:57:01.341Z,2.17
2023-01-07T03:59:28.281Z,1.95
2023-01-07T04:01:56.684Z,1.77
2023-01-07T04:04:24.848Z,2.33
2023-01-07T04:06:51.788Z,1.55
2023-01-07T04:09:18.890Z,1.77
2023-01-07T04:11:46.078Z,1.30
2023-01-07T04:14:13.050Z,1.42
2023-01-07T04:16:40.060Z,2.20
2023-01-07T04:19:15.179Z,1.50
2023-01-07T04:21:41.916Z,1.80
2023-01-07T04:24:12.922Z,1.42
2023-01-07T04:26:41.204Z,1.42
2023-01-07T04:29:11.956Z,1.02
2023-01-07T04:31:40.051Z,1.38
2023-01-07T04:34:07.714Z,1.10
2023-01-07T04:36:35.793Z,0.98
2023-01-07T04:39:05.451Z,0.93
2023-01-07T04:41:32.811Z,1.00
2023-01-07T04:44:07.397Z,1.25
2023-01-07T04:46:36.531Z,1.63
2023-01-07T04:49:04.871Z,1.42
2023-01-07T04:51:32.089Z,1.63
2023-01-07T04:54:01.210Z,1.13
2023-01-07T04:56:29.249Z,1.00
2023-01-07T04:58:57.167Z,0.90
2023-01-07T05:01:25.373Z,1.17
2023-01-07T05:03:54.498Z,1.00
2023-01-07T05:06:21.421Z,0.80
2023-01-07T05:08:48.634Z,1.05
2023-01-07T05:11:21.391Z,0.75
2023-01-07T05:13:52.388Z,0.75
2023-01-07T05:16:20.798Z,0.75
2023-01-07T05:18:47.919Z,0.77
2023-01-07T05:21:14.687Z,0.55
2023-01-07T05:23:44.572Z,0.95
2023-01-07T05:26:12.518Z,0.90
2023-01-07T05:28:41.020Z,0.73
2023-01-07T05:31:08.353Z,1.08
2023-01-07T05:33:35.209Z,0.77
2023-01-07T05:36:05.493Z,0.93
2023-01-07T05:38:35.222Z,0.93
2023-01-07T05:41:02.254Z,1.05
2023-01-07T05:43:29.528Z,0.70
2023-01-07T05:45:59.083Z,0.75
2023-01-07T05:48:27.653Z,0.80
2023-01-07T05:50:56.960Z,1.13
2023-01-07T05:53:24.920Z,0.75
2023-01-07T05:55:58.486Z,0.80
2023-01-07T06:00:53.498Z,0.60
2023-01-07T06:03:21.668Z,0.88
2023-01-07T06:05:51.138Z,0.80
2023-01-07T06:08:17.967Z,0.70
2023-01-07T06:10:44.864Z,0.40
2023-01-07T06:13:12.042Z,0.70
2023-01-07T06:15:40.152Z,0.82
2023-01-07T06:18:07.109Z,0.47
2023-01-07T06:20:34.637Z,0.82
2023-01-07T06:23:05.070Z,0.82
2023-01-07T06:25:31.860Z,0.50
2023-01-07T06:27:58.812Z,0.70
2023-01-07T06:30:27.419Z,0.38
2023-01-07T06:32:54.438Z,0.52
2023-01-07T06:35:21.300Z,0.85
2023-01-07T06:37:48.118Z,0.80
2023-01-07T06:40:16.317Z,0.77
2023-01-07T06:42:43.188Z,1.00
2023-01-07T06:45:12.509Z,0.90
2023-01-07T06:47:42.365Z,0.80
2023-01-07T06:50:11.000Z,0.90
2023-01-07T06:52:38.131Z,0.65
2023-01-07T06:55:06.798Z,0.40
2023-01-07T06:57:33.605Z,0.60
2023-01-07T07:00:00.456Z,0.52
2023-01-07T07:02:28.201Z,0.82
2023-01-07T07:04:55.520Z,0.50
2023-01-07T07:07:22.527Z,1.10
2023-01-07T07:09:50.604Z,0.60
2023-01-07T07:12:17.527Z,0.55
2023-01-07T07:14:44.367Z,0.60
2023-01-07T07:17:11.118Z,0.50
2023-01-07T07:19:39.110Z,0.60
2023-01-07T07:22:05.978Z,0.50
2023-01-07T07:24:32.838Z,0.50
2023-01-07T07:27:00.246Z,0.80
2023-01-07T07:29:27.117Z,0.93
2023-01-07T07:31:53.919Z,1.02
2023-01-07T07:34:20.595Z,0.52
2023-01-07T07:36:47.395Z,0.30
2023-01-07T07:39:14.222Z,0.50
2023-01-07T07:41:40.887Z,0.70
2023-01-07T07:44:09.563Z,0.57
2023-01-07T07:46:36.348Z,0.45
2023-01-07T07:49:03.355Z,0.28
2023-01-07T07:51:30.520Z,0.55
2023-01-07T07:53:57.206Z,0.60
2023-01-07T07:56:23.962Z,0.73
2023-01-07T07:58:50.606Z,0.80
2023-01-07T08:01:17.342Z,1.30
2023-01-07T08:03:44.177Z,0.80
2023-01-07T08:06:12.975Z,0.30
2023-01-07T08:08:39.854Z,0.50
2023-01-07T08:11:06.739Z,0.50
2023-01-07T08:13:33.537Z,0.40
2023-01-07T08:16:00.421Z,0.30
2023-01-07T08:18:27.116Z,0.60
2023-01-07T08:20:55.640Z,0.55
2023-01-07T08:23:23.404Z,0.50
2023-01-07T08:25:50.171Z,0.50
2023-01-07T08:28:17.160Z,0.55
2023-01-07T08:30:43.949Z,0.50
2023-01-07T08:33:11.260Z,0.82
2023-01-07T08:35:37.903Z,0.90
2023-01-07T08:38:09.173Z,1.13
2023-01-07T08:40:37.347Z,0.80
2023-01-07T08:43:06.662Z,0.90
2023-01-07T08:45:34.108Z,0.60
2023-01-07T08:48:01.124Z,0.52
2023-01-07T08:50:29.663Z,0.60
2023-01-07T08:52:56.976Z,0.47
2023-01-07T08:55:24.612Z,0.35
2023-01-07T08:57:51.618Z,0.70
2023-01-07T09:00:19.966Z,0.80
2023-01-07T09:02:51.043Z,0.60
2023-01-07T09:05:18.133Z,0.50
2023-01-07T09:07:44.948Z,0.60
2023-01-07T09:10:11.972Z,0.50
2023-01-07T09:12:38.925Z,0.40
2023-01-07T09:15:06.386Z,0.40
2023-01-07T09:17:33.294Z,0.70
2023-01-07T09:20:03.550Z,0.38
2023-01-07T09:22:32.278Z,0.60
2023-01-07T09:24:59.300Z,0.98
2023-01-07T09:27:29.497Z,0.50
2023-01-07T09:29:58.504Z,0.50
2023-01-07T09:32:26.982Z,0.60
2023-01-07T09:34:54.405Z,0.45
2023-01-07T09:37:22.654Z,0.50
2023-01-07T09:39:49.714Z,0.40
2023-01-07T09:42:34.186Z,0.45
2023-01-07T09:45:05.159Z,0.50
2023-01-07T09:47:36.836Z,0.77
2023-01-07T09:50:25.404Z,0.68
2023-01-07T09:52:54.688Z,0.50
2023-01-07T09:55:27.882Z,1.02
2023-01-07T09:57:57.729Z,0.90
2023-01-07T10:00:25.653Z,0.68
2023-01-07T10:02:56.285Z,0.50
2023-01-07T10:05:47.576Z,0.68
2023-01-07T10:09:04.192Z,0.50
2023-01-07T10:11:38.555Z,0.60
2023-01-07T10:14:35.620Z,0.52
2023-01-07T10:17:39.947Z,0.50
2023-01-07T10:20:23.134Z,0.70
2023-01-07T10:23:00.490Z,0.50
2023-01-07T10:25:32.138Z,0.60
2023-01-07T10:28:04.110Z,0.60
2023-01-07T10:30:40.892Z,0.55
2023-01-07T10:33:16.446Z,0.40
2023-01-07T10:35:44.052Z,0.40
2023-01-07T10:38:20.811Z,0.77
2023-01-07T10:40:55.223Z,0.50
2023-01-07T10:43:46.044Z,0.45
2023-01-07T10:46:18.637Z,0.52
2023-01-07T10:49:05.633Z,0.68
2023-01-07T10:52:00.298Z,0.75
2023-01-07T10:54:44.328Z,0.50
2023-01-07T10:57:18.330Z,0.50
2023-01-07T10:59:49.511Z,0.32
2023-01-07T11:02:22.405Z,0.75
2023-01-07T11:04:49.527Z,0.60
2023-01-07T11:07:40.213Z,0.60
2023-01-07T11:10:12.497Z,0.60
2023-01-07T11:12:45.118Z,0.40
2023-01-07T11:15:26.223Z,0.52
2023-01-07T11:17:56.594Z,0.60
2023-01-07T11:20:50.681Z,0.55
2023-01-07T11:23:35.683Z,0.47
2023-01-07T11:26:08.618Z,0.40
2023-01-07T11:28:36.479Z,0.60
2023-01-07T11:31:03.299Z,0.80
2023-01-07T11:34:02.929Z,0.63
2023-01-07T11:36:42.774Z,0.88
2023-01-07T11:39:19.527Z,0.45
2023-01-07T11:42:22.749Z,0.77
2023-01-07T11:44:49.500Z,0.73
2023-01-07T11:47:19.872Z,0.45
2023-01-07T11:49:53.505Z,0.63
2023-01-07T11:52:22.030Z,0.60
2023-01-07T11:54:53.266Z,0.63
2023-01-07T11:57:26.819Z,0.88
2023-01-07T12:02:52.236Z,0.60
2023-01-07T12:05:23.239Z,0.47
2023-01-07T12:07:51.521Z,0.70
2023-01-07T12:10:36.983Z,0.60
2023-01-07T12:13:18.932Z,0.80
2023-01-07T12:16:02.567Z,0.70
2023-01-07T12:18:59.065Z,0.60
2023-01-07T12:21:56.811Z,0.68
2023-01-07T12:24:45.630Z,0.73
2023-01-07T12:27:36.913Z,0.68
2023-01-07T12:30:57.161Z,0.73
2023-01-07T12:33:50.418Z,0.40
2023-01-07T12:36:41.079Z,0.63
2023-01-07T12:39:29.263Z,0.77
2023-01-07T12:45:02.637Z,0.70
2023-01-07T12:47:50.355Z,0.80
2023-01-07T12:50:35.262Z,0.65
2023-01-07T12:53:13.753Z,1.05
2023-01-07T12:55:48.262Z,0.70
2023-01-07T12:58:37.117Z,1.33
2023-01-07T13:01:42.833Z,0.40
2023-01-07T13:04:35.996Z,0.68
2023-01-07T13:07:19.872Z,0.73
2023-01-07T13:12:44.589Z,0.50
2023-01-07T13:15:39.664Z,0.50
2023-01-07T13:18:15.926Z,0.68
2023-01-07T13:21:01.983Z,0.55
2023-01-07T13:23:47.689Z,0.80
2023-01-07T13:26:49.878Z,0.43
2023-01-07T13:29:45.627Z,0.60
2023-01-07T13:32:12.324Z,0.60
2023-01-07T13:35:19.283Z,0.47
2023-01-07T13:38:04.218Z,0.80
2023-01-07T13:40:47.094Z,0.65
2023-01-07T13:44:06.556Z,0.57
2023-01-07T13:46:38.743Z,0.93
2023-01-07T13:49:33.192Z,0.93
2023-01-07T13:52:33.486Z,0.50
2023-01-07T13:55:13.024Z,0.80
2023-01-07T13:57:44.146Z,0.80
2023-01-07T14:00:47.943Z,0.50
2023-01-07T14:03:43.046Z,0.60
2023-01-07T14:06:21.762Z,0.80
2023-01-07T14:08:53.329Z,0.50
2023-01-07T14:11:44.011Z,1.02
2023-01-07T14:14:19.439Z,0.70
2023-01-07T14:17:15.330Z,0.98
2023-01-07T14:19:56.352Z,0.93
2023-01-07T14:22:48.522Z,0.80
2023-01-07T14:25:29.717Z,0.88
2023-01-07T14:28:18.988Z,0.70
2023-01-07T14:30:47.053Z,0.68
2023-01-07T14:33:23.858Z,0.90
2023-01-07T14:36:02.552Z,0.90
2023-01-07T14:38:30.599Z,0.88
2023-01-07T14:41:02.755Z,0.60
2023-01-07T14:43:42.122Z,0.90
2023-01-07T14:46:31.484Z,0.82
2023-01-07T14:48:58.415Z,0.82
2023-01-07T14:52:00.117Z,1.42
2023-01-07T14:54:32.898Z,1.02
2023-01-07T14:57:37.117Z,2.13
2023-01-07T15:00:22.817Z,1.48
2023-01-07T15:03:09.721Z,2.92
2023-01-07T15:05:54.760Z,0.93
2023-01-07T15:08:44.229Z,1.08
2023-01-07T15:11:40.407Z,1.35
2023-01-07T15:14:36.782Z,1.80
2023-01-07T15:17:04.072Z,1.02
2023-01-07T15:19:30.957Z,1.15
2023-01-07T15:22:13.001Z,1.65
2023-01-07T15:25:03.147Z,0.77
2023-01-07T15:27:54.756Z,0.80
2023-01-07T15:30:36.380Z,0.70
2023-01-07T15:33:30.712Z,1.00
2023-01-07T15:35:58.050Z,1.00
2023-01-07T15:38:34.260Z,0.80
2023-01-07T15:41:01.115Z,0.98
2023-01-07T15:43:30.260Z,0.90
2023-01-07T15:46:05.141Z,0.75
2023-01-07T15:48:32.277Z,1.48
2023-01-07T15:51:01.196Z,1.13
2023-01-07T15:53:30.105Z,1.30
2023-01-07T15:56:05.501Z,1.67
2023-01-07T15:58:40.214Z,0.80
2023-01-07T16:01:16.355Z,1.38
2023-01-07T16:03:44.630Z,0.90
2023-01-07T16:06:34.068Z,0.95
2023-01-07T16:09:19.159Z,0.93
2023-01-07T16:11:50.442Z,0.93
2023-01-07T16:14:22.807Z,0.95
2023-01-07T16:17:14.222Z,1.10
2023-01-07T16:19:43.628Z,0.90
2023-01-07T16:22:15.325Z,1.02
2023-01-07T16:24:51.468Z,1.02
2023-01-07T16:27:29.978Z,1.02
2023-01-07T16:29:59.888Z,1.17
2023-01-07T16:32:27.564Z,1.45
2023-01-07T16:34:57.949Z,1.10
2023-01-07T16:37:25.362Z,0.82
2023-01-07T16:39:53.182Z,1.25
2023-01-07T16:42:23.434Z,0.95
2023-01-07T16:44:53.528Z,0.93
2023-01-07T16:47:29.939Z,0.88
2023-01-07T16:50:22.193Z,1.42
2023-01-07T16:52:54.875Z,1.30
2023-01-07T16:55:48.414Z,1.25
2023-01-07T16:58:44.370Z,0.90
2023-01-07T17:01:13.284Z,2.00
2023-01-07T17:03:55.299Z,1.33
2023-01-07T17:06:28.873Z,2.83
2023-01-07T17:08:57.603Z,2.47
2023-01-07T17:11:37.396Z,1.17
2023-01-07T17:14:32.673Z,1.75
2023-01-07T17:17:19.952Z,2.13
2023-01-07T17:19:57.859Z,3.70
2023-01-07T17:22:28.964Z,1.88
2023-01-07T17:25:15.473Z,1.60
2023-01-07T17:27:56.314Z,1.30
2023-01-07T17:30:41.054Z,1.35
2023-01-07T17:33:15.403Z,1.38
2023-01-07T17:35:46.697Z,1.92
2023-01-07T17:38:14.768Z,1.30
2023-01-07T17:40:42.361Z,1.48
2023-01-07T17:43:35.138Z,1.45
2023-01-07T17:46:05.609Z,1.13
2023-01-07T17:48:33.484Z,1.40
2023-01-07T17:51:01.275Z,2.25
2023-01-07T17:53:33.963Z,2.25
2023-01-07T17:56:01.981Z,1.42
2023-01-07T17:58:31.366Z,2.08
2023-01-07T18:01:00.682Z,1.95
2023-01-07T18:03:28.130Z,1.85
2023-01-07T18:05:54.846Z,1.08
2023-01-07T18:08:22.078Z,1.45
2023-01-07T18:11:09.863Z,0.95
2023-01-07T18:13:37.107Z,1.60
2023-01-07T18:16:04.024Z,1.35
2023-01-07T18:18:31.170Z,1.17
2023-01-07T18:20:58.473Z,1.58
2023-01-07T18:23:25.264Z,2.40
2023-01-07T18:25:52.188Z,3.90
2023-01-07T18:28:18.912Z,2.53
2023-01-07T18:30:45.934Z,1.38
2023-01-07T18:33:12.741Z,1.73
2023-01-07T18:35:44.055Z,3.30
2023-01-07T18:38:15.251Z,2.33
2023-01-07T18:40:42.908Z,1.80
2023-01-07T18:43:13.446Z,1.75
2023-01-07T18:45:41.809Z,1.25
2023-01-07T18:48:09.624Z,1.30
2023-01-07T18:50:40.010Z,1.80
2023-01-07T18:53:06.682Z,1.58
2023-01-07T18:55:33.366Z,1.83
2023-01-07T18:58:00.425Z,1.20
2023-01-07T19:00:30.274Z,0.82
2023-01-07T19:02:58.245Z,1.80
2023-01-07T19:05:26.056Z,1.55
2023-01-07T19:07:55.150Z,1.58
2023-01-07T19:10:23.478Z,1.58
2023-01-07T19:12:50.586Z,1.92
2023-01-07T19:15:18.068Z,1.35
2023-01-07T19:17:44.935Z,1.83
2023-01-07T19:20:14.770Z,1.77
2023-01-07T19:22:41.718Z,1.48
2023-01-07T19:25:09.338Z,1.48
2023-01-07T19:27:38.428Z,1.45
2023-01-07T19:30:06.029Z,1.45
2023-01-07T19:32:32.832Z,1.63
2023-01-07T19:34:59.610Z,1.38
2023-01-07T19:37:28.010Z,1.63
2023-01-07T19:39:54.865Z,1.85
2023-01-07T19:42:24.168Z,1.77
2023-01-07T19:44:52.407Z,1.30
2023-01-07T19:47:19.224Z,3.17
2023-01-07T19:49:46.257Z,0.93
2023-01-07T19:52:13.715Z,1.38
2023-01-07T19:54:41.753Z,2.50
2023-01-07T19:57:09.742Z,1.77
2023-01-07T19:59:36.609Z,1.52
2023-01-07T20:02:03.938Z,2.10
2023-01-07T20:04:32.041Z,3.03
2023-01-07T20:07:02.088Z,3.45
2023-01-07T20:09:31.299Z,1.55
2023-01-07T20:11:59.713Z,1.52
2023-01-07T20:14:28.822Z,1.50
2023-01-07T20:16:57.954Z,1.27
2023-01-07T20:19:25.144Z,1.23
2023-01-07T20:21:51.919Z,1.25
2023-01-07T20:24:18.811Z,1.30
2023-01-07T20:26:46.616Z,1.45
2023-01-07T20:29:13.481Z,1.20
2023-01-07T20:31:41.744Z,1.13
2023-01-07T20:34:08.623Z,1.88
2023-01-07T20:36:35.516Z,1.50
2023-01-07T20:39:05.698Z,1.17
2023-01-07T20:41:34.982Z,1.50
2023-01-07T20:44:08.633Z,1.42
2023-01-07T20:46:35.511Z,1.10
2023-01-07T20:49:02.742Z,1.63
2023-01-07T20:51:31.839Z,1.67
2023-01-07T20:53:58.673Z,1.65
2023-01-07T20:56:32.224Z,1.38
2023-01-07T20:59:00.201Z,1.77
2023-01-07T21:01:27.335Z,1.40
2023-01-07T21:03:55.599Z,1.52
2023-01-07T21:06:24.929Z,2.17
2023-01-07T21:08:52.177Z,1.58
2023-01-07T21:11:21.065Z,2.17
2023-01-07T21:13:48.773Z,2.17
2023-01-07T21:16:15.917Z,2.30
2023-01-07T21:18:43.087Z,2.08
2023-01-07T21:21:16.466Z,1.65
2023-01-07T21:23:46.573Z,1.90
2023-01-07T21:26:14.893Z,1.92
2023-01-07T21:28:44.386Z,1.77
2023-01-07T21:31:13.570Z,1.98
2023-01-07T21:33:41.193Z,1.77
2023-01-07T21:36:13.398Z,1.60
2023-01-07T21:38:40.416Z,2.22
2023-01-07T21:41:10.042Z,1.80
2023-01-07T21:43:37.977Z,1.58
2023-01-07T21:46:06.910Z,1.33
2023-01-07T21:48:36.799Z,2.30
2023-01-07T21:51:07.415Z,1.95
2023-01-07T21:53:36.562Z,0.98
2023-01-07T21:56:14.949Z,1.75
2023-01-07T21:58:43.052Z,1.92
2023-01-07T22:01:11.650Z,1.92
2023-01-07T22:03:39.130Z,1.88
2023-01-07T22:06:09.643Z,2.35
2023-01-07T22:08:37.468Z,2.05
2023-01-07T22:11:04.511Z,2.00
2023-01-07T22:13:32.283Z,2.00
2023-01-07T22:15:59.113Z,1.70
2023-01-07T22:18:25.860Z,2.42
2023-01-07T22:20:55.572Z,1.70
2023-01-07T22:23:23.311Z,2.00
2023-01-07T22:25:50.245Z,1.40
2023-01-07T22:28:21.948Z,2.00
2023-01-07T22:30:55.921Z,1.90
2023-01-07T22:33:23.797Z,1.77
2023-01-07T22:35:51.792Z,2.40
2023-01-07T22:38:22.545Z,2.70
2023-01-07T22:40:51.147Z,1.48
2023-01-07T22:43:20.583Z,1.52
2023-01-07T22:46:08.754Z,1.98
2023-01-07T22:48:42.657Z,1.58
2023-01-07T22:51:20.144Z,1.63
2023-01-07T22:53:49.887Z,1.40
2023-01-07T22:56:16.766Z,1.58
2023-01-07T22:58:43.653Z,1.40
2023-01-07T23:01:15.861Z,1.67
2023-01-07T23:03:44.156Z,1.33
2023-01-07T23:06:14.768Z,1.40
2023-01-07T23:08:42.287Z,1.60
2023-01-07T23:11:35.060Z,1.30
2023-01-07T23:14:02.757Z,1.42
2023-01-07T23:16:29.669Z,1.77
2023-01-07T23:18:57.586Z,1.35
2023-01-07T23:21:25.391Z,1.95
2023-01-07T23:23:52.217Z,1.50
2023-01-07T23:26:19.766Z,1.10
2023-01-07T23:28:46.496Z,1.52
2023-01-07T23:31:13.348Z,1.40
2023-01-07T23:33:41.287Z,1.77
2023-01-07T23:36:09.716Z,1.27
2023-01-07T23:38:37.293Z,1.10
2023-01-07T23:41:07.079Z,1.55
2023-01-07T23:43:35.618Z,1.52
2023-01-07T23:46:07.012Z,1.38
2023-01-07T23:48:38.249Z,1.08
2023-01-07T23:51:16.964Z,1.63
2023-01-07T23:53:45.092Z,1.33
2023-01-07T23:56:12.495Z,1.55
2023-01-07T23:58:39.602Z,1.30
